sensor_id;sensor_type;location;lat;lon;timestamp;P1;durP1;ratioP1;P2;durP2;ratioP2
7997;SDS011;4044;49.814;7.828;2023-05-10T00:01:31;3.50;;;1.40;;
7997;SDS011;4044;49.814;7.828;2023-05-10T00:03:57;1.33;;;1.17;;
7997;SDS011;4044;49.814;7.828;2023-05-10T00:06:22;3.07;;;1.20;;
7997;SDS011;4044;49.814;7.828;2023-05-10T00:08:48;3.17;;;1.40;;
7997;SDS011;4044;49.814;7.828;2023-05-10T00:11:13;3.97;;;1.60;;
7997;SDS011;4044;49.814;7.828;2023-05-10T00:13:39;1.73;;;1.17;;
7997;SDS011;4044;49.814;7.828;2023-05-10T00:16:05;1.13;;;1.10;;
7997;SDS011;4044;49.814;7.828;2023-05-10T00:18:31;1.33;;;1.10;;
7997;SDS011;4044;49.814;7.828;2023-05-10T00:20:56;2.57;;;1.20;;
7997;SDS011;4044;49.814;7.828;2023-05-10T00:23:22;1.20;;;1.10;;
7997;SDS011;4044;49.814;7.828;2023-05-10T00:25:47;1.27;;;1.20;;
7997;SDS011;4044;49.814;7.828;2023-05-10T00:28:13;3.23;;;1.30;;
7997;SDS011;4044;49.814;7.828;2023-05-10T00:30:38;2.23;;;1.30;;
7997;SDS011;4044;49.814;7.828;2023-05-10T00:33:04;2.20;;;1.30;;
7997;SDS011;4044;49.814;7.828;2023-05-10T00:35:29;2.93;;;1.40;;
7997;SDS011;4044;49.814;7.828;2023-05-10T00:37:55;1.77;;;1.67;;
7997;SDS011;4044;49.814;7.828;2023-05-10T00:40:20;2.90;;;1.63;;
7997;SDS011;4044;49.814;7.828;2023-05-10T00:42:46;2.37;;;1.57;;
7997;SDS011;4044;49.814;7.828;2023-05-10T00:45:11;2.17;;;1.50;;
7997;SDS011;4044;49.814;7.828;2023-05-10T00:47:37;2.27;;;1.17;;
7997;SDS011;4044;49.814;7.828;2023-05-10T00:50:03;2.20;;;1.00;;
7997;SDS011;4044;49.814;7.828;2023-05-10T00:52:30;2.10;;;1.20;;
7997;SDS011;4044;49.814;7.828;2023-05-10T00:54:55;4.27;;;1.60;;
7997;SDS011;4044;49.814;7.828;2023-05-10T00:57:22;3.93;;;1.20;;
7997;SDS011;4044;49.814;7.828;2023-05-10T00:59:47;5.00;;;1.43;;
7997;SDS011;4044;49.814;7.828;2023-05-10T01:02:13;2.10;;;1.47;;
7997;SDS011;4044;49.814;7.828;2023-05-10T01:04:39;2.37;;;1.23;;
7997;SDS011;4044;49.814;7.828;2023-05-10T01:07:05;2.77;;;1.37;;
7997;SDS011;4044;49.814;7.828;2023-05-10T01:09:31;2.27;;;1.37;;
7997;SDS011;4044;49.814;7.828;2023-05-10T01:11:57;2.80;;;1.60;;
7997;SDS011;4044;49.814;7.828;2023-05-10T01:14:24;2.63;;;1.40;;
7997;SDS011;4044;49.814;7.828;2023-05-10T01:16:51;4.07;;;1.50;;
7997;SDS011;4044;49.814;7.828;2023-05-10T01:21:53;1.57;;;1.30;;
7997;SDS011;4044;49.814;7.828;2023-05-10T01:35:14;2.37;;;1.53;;
7997;SDS011;4044;49.814;7.828;2023-05-10T01:38:04;6.83;;;1.77;;
7997;SDS011;4044;49.814;7.828;2023-05-10T01:40:47;4.53;;;2.07;;
7997;SDS011;4044;49.814;7.828;2023-05-10T01:43:19;2.03;;;1.70;;
7997;SDS011;4044;49.814;7.828;2023-05-10T01:46:00;2.53;;;1.70;;
7997;SDS011;4044;49.814;7.828;2023-05-10T01:48:35;3.10;;;1.80;;
7997;SDS011;4044;49.814;7.828;2023-05-10T01:51:08;6.53;;;2.00;;
7997;SDS011;4044;49.814;7.828;2023-05-10T01:53:35;2.43;;;1.90;;
7997;SDS011;4044;49.814;7.828;2023-05-10T01:56:04;7.30;;;1.77;;
7997;SDS011;4044;49.814;7.828;2023-05-10T01:58:31;2.70;;;1.73;;
7997;SDS011;4044;49.814;7.828;2023-05-10T02:00:59;3.70;;;1.73;;
7997;SDS011;4044;49.814;7.828;2023-05-10T02:03:28;4.20;;;1.60;;
7997;SDS011;4044;49.814;7.828;2023-05-10T02:05:56;2.13;;;1.77;;
7997;SDS011;4044;49.814;7.828;2023-05-10T02:08:22;2.90;;;1.70;;
7997;SDS011;4044;49.814;7.828;2023-05-10T02:10:50;3.67;;;1.63;;
7997;SDS011;4044;49.814;7.828;2023-05-10T02:13:17;2.40;;;1.90;;
7997;SDS011;4044;49.814;7.828;2023-05-10T02:15:43;2.70;;;2.03;;
7997;SDS011;4044;49.814;7.828;2023-05-10T02:18:12;2.87;;;1.90;;
7997;SDS011;4044;49.814;7.828;2023-05-10T02:20:39;2.10;;;2.00;;
7997;SDS011;4044;49.814;7.828;2023-05-10T02:23:05;3.20;;;1.97;;
7997;SDS011;4044;49.814;7.828;2023-05-10T02:25:31;6.60;;;1.80;;
7997;SDS011;4044;49.814;7.828;2023-05-10T02:27:57;3.63;;;2.37;;
7997;SDS011;4044;49.814;7.828;2023-05-10T02:30:27;2.90;;;2.30;;
7997;SDS011;4044;49.814;7.828;2023-05-10T02:32:53;2.50;;;2.30;;
7997;SDS011;4044;49.814;7.828;2023-05-10T02:35:20;2.60;;;2.40;;
7997;SDS011;4044;49.814;7.828;2023-05-10T02:37:48;3.50;;;2.50;;
7997;SDS011;4044;49.814;7.828;2023-05-10T02:40:15;2.60;;;2.40;;
7997;SDS011;4044;49.814;7.828;2023-05-10T02:42:43;2.63;;;2.37;;
7997;SDS011;4044;49.814;7.828;2023-05-10T02:45:11;2.60;;;2.40;;
7997;SDS011;4044;49.814;7.828;2023-05-10T02:47:38;3.30;;;2.80;;
7997;SDS011;4044;49.814;7.828;2023-05-10T02:50:04;4.40;;;2.57;;
7997;SDS011;4044;49.814;7.828;2023-05-10T02:52:39;3.70;;;2.33;;
7997;SDS011;4044;49.814;7.828;2023-05-10T02:55:09;3.03;;;2.40;;
7997;SDS011;4044;49.814;7.828;2023-05-10T02:57:41;5.47;;;2.70;;
7997;SDS011;4044;49.814;7.828;2023-05-10T03:00:13;2.67;;;2.47;;
7997;SDS011;4044;49.814;7.828;2023-05-10T03:02:39;3.50;;;3.07;;
7997;SDS011;4044;49.814;7.828;2023-05-10T03:05:04;2.40;;;2.30;;
7997;SDS011;4044;49.814;7.828;2023-05-10T03:07:30;5.87;;;2.70;;
7997;SDS011;4044;49.814;7.828;2023-05-10T03:09:56;3.20;;;2.40;;
7997;SDS011;4044;49.814;7.828;2023-05-10T03:15:36;2.63;;;2.43;;
7997;SDS011;4044;49.814;7.828;2023-05-10T03:21:07;3.00;;;2.67;;
7997;SDS011;4044;49.814;7.828;2023-05-10T03:23:44;3.10;;;2.47;;
7997;SDS011;4044;49.814;7.828;2023-05-10T03:26:15;2.63;;;2.43;;
7997;SDS011;4044;49.814;7.828;2023-05-10T03:28:45;3.87;;;2.53;;
7997;SDS011;4044;49.814;7.828;2023-05-10T03:31:13;3.80;;;2.87;;
7997;SDS011;4044;49.814;7.828;2023-05-10T03:33:48;4.17;;;2.90;;
7997;SDS011;4044;49.814;7.828;2023-05-10T03:36:14;5.00;;;3.30;;
7997;SDS011;4044;49.814;7.828;2023-05-10T03:38:40;5.57;;;3.60;;
7997;SDS011;4044;49.814;7.828;2023-05-10T03:41:05;6.43;;;3.40;;
7997;SDS011;4044;49.814;7.828;2023-05-10T03:43:31;5.60;;;3.50;;
7997;SDS011;4044;49.814;7.828;2023-05-10T03:45:56;5.10;;;3.20;;
7997;SDS011;4044;49.814;7.828;2023-05-10T03:48:22;5.43;;;3.80;;
7997;SDS011;4044;49.814;7.828;2023-05-10T03:50:47;6.60;;;3.20;;
7997;SDS011;4044;49.814;7.828;2023-05-10T03:53:14;4.93;;;3.20;;
7997;SDS011;4044;49.814;7.828;2023-05-10T03:55:40;6.70;;;3.77;;
7997;SDS011;4044;49.814;7.828;2023-05-10T03:58:05;7.23;;;4.17;;
7997;SDS011;4044;49.814;7.828;2023-05-10T04:00:31;6.40;;;4.13;;
7997;SDS011;4044;49.814;7.828;2023-05-10T04:02:57;5.53;;;3.90;;
7997;SDS011;4044;49.814;7.828;2023-05-10T04:05:23;9.63;;;4.37;;
7997;SDS011;4044;49.814;7.828;2023-05-10T04:07:48;4.00;;;3.63;;
7997;SDS011;4044;49.814;7.828;2023-05-10T04:10:15;5.03;;;3.70;;
7997;SDS011;4044;49.814;7.828;2023-05-10T04:12:41;8.00;;;5.27;;
7997;SDS011;4044;49.814;7.828;2023-05-10T04:15:07;9.20;;;4.80;;
7997;SDS011;4044;49.814;7.828;2023-05-10T04:17:33;4.63;;;4.23;;
7997;SDS011;4044;49.814;7.828;2023-05-10T04:19:58;5.57;;;4.20;;
7997;SDS011;4044;49.814;7.828;2023-05-10T04:22:24;6.43;;;4.70;;
7997;SDS011;4044;49.814;7.828;2023-05-10T04:24:49;7.13;;;3.93;;
7997;SDS011;4044;49.814;7.828;2023-05-10T04:27:15;4.57;;;4.10;;
7997;SDS011;4044;49.814;7.828;2023-05-10T04:29:40;5.60;;;4.40;;
7997;SDS011;4044;49.814;7.828;2023-05-10T04:32:06;7.07;;;4.27;;
7997;SDS011;4044;49.814;7.828;2023-05-10T04:34:32;7.07;;;4.90;;
7997;SDS011;4044;49.814;7.828;2023-05-10T04:36:59;8.07;;;5.10;;
7997;SDS011;4044;49.814;7.828;2023-05-10T04:39:24;9.90;;;5.47;;
7997;SDS011;4044;49.814;7.828;2023-05-10T04:41:50;6.30;;;4.53;;
7997;SDS011;4044;49.814;7.828;2023-05-10T04:44:15;8.27;;;5.37;;
7997;SDS011;4044;49.814;7.828;2023-05-10T04:46:41;7.93;;;5.33;;
7997;SDS011;4044;49.814;7.828;2023-05-10T04:49:06;7.23;;;4.87;;
7997;SDS011;4044;49.814;7.828;2023-05-10T04:51:32;12.53;;;5.67;;
7997;SDS011;4044;49.814;7.828;2023-05-10T04:53:57;6.10;;;4.80;;
7997;SDS011;4044;49.814;7.828;2023-05-10T04:56:23;8.90;;;5.30;;
7997;SDS011;4044;49.814;7.828;2023-05-10T04:58:48;10.97;;;5.87;;
7997;SDS011;4044;49.814;7.828;2023-05-10T05:01:14;8.87;;;5.47;;
7997;SDS011;4044;49.814;7.828;2023-05-10T05:03:40;9.23;;;5.77;;
7997;SDS011;4044;49.814;7.828;2023-05-10T05:06:05;7.30;;;5.17;;
7997;SDS011;4044;49.814;7.828;2023-05-10T05:08:31;9.37;;;6.23;;
7997;SDS011;4044;49.814;7.828;2023-05-10T05:10:56;8.43;;;5.80;;
7997;SDS011;4044;49.814;7.828;2023-05-10T05:13:22;8.10;;;5.00;;
7997;SDS011;4044;49.814;7.828;2023-05-10T05:15:48;10.57;;;5.60;;
7997;SDS011;4044;49.814;7.828;2023-05-10T05:18:13;8.63;;;5.80;;
7997;SDS011;4044;49.814;7.828;2023-05-10T05:20:39;8.47;;;6.00;;
7997;SDS011;4044;49.814;7.828;2023-05-10T05:23:04;8.27;;;5.30;;
7997;SDS011;4044;49.814;7.828;2023-05-10T05:25:30;7.40;;;5.10;;
7997;SDS011;4044;49.814;7.828;2023-05-10T05:27:55;7.00;;;4.90;;
7997;SDS011;4044;49.814;7.828;2023-05-10T05:30:21;12.37;;;5.63;;
7997;SDS011;4044;49.814;7.828;2023-05-10T05:32:46;8.03;;;5.80;;
7997;SDS011;4044;49.814;7.828;2023-05-10T05:35:12;11.93;;;6.47;;
7997;SDS011;4044;49.814;7.828;2023-05-10T05:37:38;10.97;;;6.50;;
7997;SDS011;4044;49.814;7.828;2023-05-10T05:40:04;10.57;;;6.97;;
7997;SDS011;4044;49.814;7.828;2023-05-10T05:42:30;11.07;;;7.30;;
7997;SDS011;4044;49.814;7.828;2023-05-10T05:44:56;8.80;;;6.33;;
7997;SDS011;4044;49.814;7.828;2023-05-10T05:47:22;10.60;;;6.30;;
7997;SDS011;4044;49.814;7.828;2023-05-10T05:49:47;11.77;;;5.45;;
7997;SDS011;4044;49.814;7.828;2023-05-10T05:52:13;7.47;;;5.32;;
7997;SDS011;4044;49.814;7.828;2023-05-10T05:54:39;5.93;;;5.22;;
7997;SDS011;4044;49.814;7.828;2023-05-10T05:57:04;8.57;;;5.57;;
7997;SDS011;4044;49.814;7.828;2023-05-10T05:59:30;7.30;;;4.65;;
7997;SDS011;4044;49.814;7.828;2023-05-10T06:01:56;8.63;;;4.28;;
7997;SDS011;4044;49.814;7.828;2023-05-10T06:04:21;5.88;;;5.00;;
7997;SDS011;4044;49.814;7.828;2023-05-10T06:06:47;11.80;;;5.60;;
7997;SDS011;4044;49.814;7.828;2023-05-10T06:09:13;7.70;;;4.72;;
7997;SDS011;4044;49.814;7.828;2023-05-10T06:11:38;7.20;;;5.15;;
7997;SDS011;4044;49.814;7.828;2023-05-10T06:14:04;5.68;;;4.50;;
7997;SDS011;4044;49.814;7.828;2023-05-10T06:16:32;4.75;;;4.35;;
7997;SDS011;4044;49.814;7.828;2023-05-10T06:18:57;6.40;;;4.57;;
7997;SDS011;4044;49.814;7.828;2023-05-10T06:21:23;5.97;;;4.28;;
7997;SDS011;4044;49.814;7.828;2023-05-10T06:23:48;5.38;;;4.53;;
7997;SDS011;4044;49.814;7.828;2023-05-10T06:26:14;4.55;;;3.53;;
7997;SDS011;4044;49.814;7.828;2023-05-10T06:28:39;4.85;;;3.88;;
7997;SDS011;4044;49.814;7.828;2023-05-10T06:31:05;3.87;;;3.50;;
7997;SDS011;4044;49.814;7.828;2023-05-10T06:33:31;4.23;;;3.77;;
7997;SDS011;4044;49.814;7.828;2023-05-10T06:35:57;7.30;;;4.00;;
7997;SDS011;4044;49.814;7.828;2023-05-10T06:38:23;3.33;;;2.92;;
7997;SDS011;4044;49.814;7.828;2023-05-10T06:40:49;7.97;;;4.10;;
7997;SDS011;4044;49.814;7.828;2023-05-10T06:43:14;4.40;;;3.28;;
7997;SDS011;4044;49.814;7.828;2023-05-10T06:45:40;6.47;;;3.58;;
7997;SDS011;4044;49.814;7.828;2023-05-10T06:48:06;6.75;;;3.47;;
7997;SDS011;4044;49.814;7.828;2023-05-10T06:50:32;4.18;;;3.30;;
7997;SDS011;4044;49.814;7.828;2023-05-10T06:52:58;3.33;;;3.03;;
7997;SDS011;4044;49.814;7.828;2023-05-10T06:55:24;3.75;;;3.45;;
7997;SDS011;4044;49.814;7.828;2023-05-10T06:57:50;3.72;;;3.38;;
7997;SDS011;4044;49.814;7.828;2023-05-10T07:00:16;2.75;;;2.55;;
7997;SDS011;4044;49.814;7.828;2023-05-10T07:02:42;4.75;;;3.05;;
7997;SDS011;4044;49.814;7.828;2023-05-10T07:05:08;4.13;;;2.50;;
7997;SDS011;4044;49.814;7.828;2023-05-10T07:07:34;2.50;;;2.30;;
7997;SDS011;4044;49.814;7.828;2023-05-10T07:09:59;2.80;;;2.60;;
7997;SDS011;4044;49.814;7.828;2023-05-10T07:12:25;3.78;;;2.60;;
7997;SDS011;4044;49.814;7.828;2023-05-10T07:14:51;2.75;;;2.55;;
7997;SDS011;4044;49.814;7.828;2023-05-10T07:17:17;2.88;;;2.67;;
7997;SDS011;4044;49.814;7.828;2023-05-10T07:19:42;3.15;;;2.40;;
7997;SDS011;4044;49.814;7.828;2023-05-10T07:22:08;2.53;;;2.30;;
7997;SDS011;4044;49.814;7.828;2023-05-10T07:24:33;4.15;;;2.42;;
7997;SDS011;4044;49.814;7.828;2023-05-10T07:26:59;3.05;;;2.33;;
7997;SDS011;4044;49.814;7.828;2023-05-10T07:29:25;5.78;;;2.15;;
7997;SDS011;4044;49.814;7.828;2023-05-10T07:31:50;1.58;;;1.48;;
7997;SDS011;4044;49.814;7.828;2023-05-10T07:34:16;1.75;;;1.60;;
7997;SDS011;4044;49.814;7.828;2023-05-10T07:36:42;1.85;;;1.55;;
7997;SDS011;4044;49.814;7.828;2023-05-10T07:39:07;3.22;;;1.80;;
7997;SDS011;4044;49.814;7.828;2023-05-10T07:41:33;4.55;;;1.27;;
7997;SDS011;4044;49.814;7.828;2023-05-10T07:43:58;3.63;;;1.30;;
7997;SDS011;4044;49.814;7.828;2023-05-10T07:46:24;1.60;;;0.90;;
7997;SDS011;4044;49.814;7.828;2023-05-10T07:48:49;1.33;;;1.23;;
7997;SDS011;4044;49.814;7.828;2023-05-10T07:51:15;1.25;;;1.02;;
7997;SDS011;4044;49.814;7.828;2023-05-10T07:53:41;2.58;;;1.30;;
7997;SDS011;4044;49.814;7.828;2023-05-10T07:56:19;2.20;;;1.08;;
7997;SDS011;4044;49.814;7.828;2023-05-10T07:58:47;2.25;;;1.10;;
7997;SDS011;4044;49.814;7.828;2023-05-10T08:01:12;1.27;;;0.82;;
7997;SDS011;4044;49.814;7.828;2023-05-10T08:03:38;0.93;;;0.70;;
7997;SDS011;4044;49.814;7.828;2023-05-10T08:06:03;1.17;;;0.88;;
7997;SDS011;4044;49.814;7.828;2023-05-10T08:08:29;1.27;;;0.80;;
7997;SDS011;4044;49.814;7.828;2023-05-10T08:10:55;1.00;;;0.82;;
7997;SDS011;4044;49.814;7.828;2023-05-10T08:13:20;2.70;;;1.00;;
7997;SDS011;4044;49.814;7.828;2023-05-10T08:15:46;2.15;;;0.80;;
7997;SDS011;4044;49.814;7.828;2023-05-10T08:18:12;1.67;;;0.90;;
7997;SDS011;4044;49.814;7.828;2023-05-10T08:20:37;1.38;;;0.68;;
7997;SDS011;4044;49.814;7.828;2023-05-10T08:23:03;0.88;;;0.88;;
7997;SDS011;4044;49.814;7.828;2023-05-10T08:25:28;2.05;;;1.10;;
7997;SDS011;4044;49.814;7.828;2023-05-10T08:27:54;1.58;;;0.80;;
7997;SDS011;4044;49.814;7.828;2023-05-10T08:30:19;4.15;;;1.02;;
7997;SDS011;4044;49.814;7.828;2023-05-10T08:32:45;0.93;;;0.93;;
7997;SDS011;4044;49.814;7.828;2023-05-10T08:35:10;2.15;;;1.10;;
7997;SDS011;4044;49.814;7.828;2023-05-10T08:37:36;1.10;;;1.10;;
7997;SDS011;4044;49.814;7.828;2023-05-10T08:40:01;1.10;;;1.10;;
7997;SDS011;4044;49.814;7.828;2023-05-10T08:42:28;3.47;;;1.15;;
7997;SDS011;4044;49.814;7.828;2023-05-10T08:44:55;1.60;;;1.10;;
7997;SDS011;4044;49.814;7.828;2023-05-10T08:47:23;1.70;;;1.20;;
7997;SDS011;4044;49.814;7.828;2023-05-10T08:49:49;1.17;;;1.10;;
7997;SDS011;4044;49.814;7.828;2023-05-10T08:52:16;1.10;;;1.10;;
7997;SDS011;4044;49.814;7.828;2023-05-10T08:54:43;1.33;;;1.23;;
7997;SDS011;4044;49.814;7.828;2023-05-10T08:57:08;1.20;;;1.20;;
7997;SDS011;4044;49.814;7.828;2023-05-10T08:59:35;4.30;;;1.35;;
7997;SDS011;4044;49.814;7.828;2023-05-10T09:02:03;0.90;;;0.90;;
7997;SDS011;4044;49.814;7.828;2023-05-10T09:04:29;1.20;;;1.10;;
7997;SDS011;4044;49.814;7.828;2023-05-10T09:06:56;2.03;;;1.00;;
7997;SDS011;4044;49.814;7.828;2023-05-10T09:09:22;2.42;;;0.80;;
7997;SDS011;4044;49.814;7.828;2023-05-10T09:11:50;2.40;;;1.02;;
7997;SDS011;4044;49.814;7.828;2023-05-10T09:14:17;1.23;;;0.90;;
7997;SDS011;4044;49.814;7.828;2023-05-10T09:16:44;0.90;;;0.90;;
7997;SDS011;4044;49.814;7.828;2023-05-10T09:19:10;1.55;;;0.80;;
7997;SDS011;4044;49.814;7.828;2023-05-10T09:21:36;1.30;;;1.20;;
7997;SDS011;4044;49.814;7.828;2023-05-10T09:24:03;1.10;;;0.90;;
7997;SDS011;4044;49.814;7.828;2023-05-10T09:26:30;0.90;;;0.90;;
7997;SDS011;4044;49.814;7.828;2023-05-10T09:28:57;1.80;;;1.08;;
7997;SDS011;4044;49.814;7.828;2023-05-10T09:31:24;1.20;;;0.90;;
7997;SDS011;4044;49.814;7.828;2023-05-10T09:34:07;1.00;;;1.00;;
7997;SDS011;4044;49.814;7.828;2023-05-10T09:36:33;1.55;;;0.90;;
7997;SDS011;4044;49.814;7.828;2023-05-10T09:38:58;5.00;;;1.20;;
7997;SDS011;4044;49.814;7.828;2023-05-10T09:41:25;0.80;;;0.80;;
7997;SDS011;4044;49.814;7.828;2023-05-10T09:43:55;1.98;;;1.30;;
7997;SDS011;4044;49.814;7.828;2023-05-10T09:46:21;1.80;;;1.27;;
7997;SDS011;4044;49.814;7.828;2023-05-10T09:48:47;1.00;;;1.00;;
7997;SDS011;4044;49.814;7.828;2023-05-10T09:51:20;1.63;;;1.20;;
7997;SDS011;4044;49.814;7.828;2023-05-10T09:53:47;1.27;;;1.08;;
7997;SDS011;4044;49.814;7.828;2023-05-10T09:56:18;1.00;;;1.00;;
7997;SDS011;4044;49.814;7.828;2023-05-10T09:59:04;3.53;;;1.10;;
7997;SDS011;4044;49.814;7.828;2023-05-10T10:01:30;1.17;;;0.90;;
7997;SDS011;4044;49.814;7.828;2023-05-10T10:03:56;3.65;;;0.90;;
7997;SDS011;4044;49.814;7.828;2023-05-10T10:06:23;0.85;;;0.80;;
7997;SDS011;4044;49.814;7.828;2023-05-10T10:08:49;1.55;;;0.80;;
7997;SDS011;4044;49.814;7.828;2023-05-10T10:11:16;1.20;;;0.95;;
7997;SDS011;4044;49.814;7.828;2023-05-10T10:13:41;3.20;;;0.90;;
7997;SDS011;4044;49.814;7.828;2023-05-10T10:16:08;0.85;;;0.85;;
7997;SDS011;4044;49.814;7.828;2023-05-10T10:18:33;0.88;;;0.88;;
7997;SDS011;4044;49.814;7.828;2023-05-10T10:21:03;0.80;;;0.75;;
7997;SDS011;4044;49.814;7.828;2023-05-10T10:23:33;3.10;;;0.70;;
7997;SDS011;4044;49.814;7.828;2023-05-10T10:26:00;1.85;;;0.90;;
7997;SDS011;4044;49.814;7.828;2023-05-10T10:28:36;0.85;;;0.85;;
7997;SDS011;4044;49.814;7.828;2023-05-10T10:36:31;0.90;;;0.90;;
7997;SDS011;4044;49.814;7.828;2023-05-10T10:38:59;1.25;;;0.93;;
7997;SDS011;4044;49.814;7.828;2023-05-10T10:41:39;1.20;;;0.80;;
7997;SDS011;4044;49.814;7.828;2023-05-10T10:47:33;1.00;;;0.90;;
7997;SDS011;4044;49.814;7.828;2023-05-10T10:52:20;1.00;;;0.90;;
7997;SDS011;4044;49.814;7.828;2023-05-10T10:54:53;3.45;;;1.00;;
7997;SDS011;4044;49.814;7.828;2023-05-10T10:57:25;0.85;;;0.85;;
7997;SDS011;4044;49.814;7.828;2023-05-10T10:59:54;1.77;;;0.90;;
7997;SDS011;4044;49.814;7.828;2023-05-10T11:02:47;0.93;;;0.93;;
7997;SDS011;4044;49.814;7.828;2023-05-10T11:08:14;1.08;;;0.90;;
7997;SDS011;4044;49.814;7.828;2023-05-10T11:13:28;1.17;;;1.00;;
7997;SDS011;4044;49.814;7.828;2023-05-10T11:15:56;1.13;;;0.98;;
7997;SDS011;4044;49.814;7.828;2023-05-10T11:18:24;1.02;;;0.70;;
7997;SDS011;4044;49.814;7.828;2023-05-10T11:20:58;1.02;;;0.80;;
7997;SDS011;4044;49.814;7.828;2023-05-10T11:23:47;3.50;;;0.80;;
7997;SDS011;4044;49.814;7.828;2023-05-10T11:26:14;0.90;;;0.90;;
7997;SDS011;4044;49.814;7.828;2023-05-10T11:28:44;1.50;;;1.00;;
7997;SDS011;4044;49.814;7.828;2023-05-10T11:31:15;0.70;;;0.70;;
7997;SDS011;4044;49.814;7.828;2023-05-10T11:33:46;0.82;;;0.82;;
7997;SDS011;4044;49.814;7.828;2023-05-10T11:36:14;1.13;;;1.05;;
7997;SDS011;4044;49.814;7.828;2023-05-10T11:38:41;1.55;;;0.90;;
7997;SDS011;4044;49.814;7.828;2023-05-10T11:41:10;1.33;;;0.95;;
7997;SDS011;4044;49.814;7.828;2023-05-10T11:43:37;2.70;;;1.00;;
7997;SDS011;4044;49.814;7.828;2023-05-10T11:46:04;0.80;;;0.80;;
7997;SDS011;4044;49.814;7.828;2023-05-10T11:48:31;1.13;;;0.90;;
7997;SDS011;4044;49.814;7.828;2023-05-10T11:50:57;0.90;;;0.90;;
7997;SDS011;4044;49.814;7.828;2023-05-10T11:53:23;1.17;;;0.85;;
7997;SDS011;4044;49.814;7.828;2023-05-10T11:56:05;0.90;;;0.90;;
7997;SDS011;4044;49.814;7.828;2023-05-10T11:58:32;1.98;;;0.93;;
7997;SDS011;4044;49.814;7.828;2023-05-10T12:01:01;2.88;;;0.98;;
7997;SDS011;4044;49.814;7.828;2023-05-10T12:03:28;1.17;;;1.10;;
7997;SDS011;4044;49.814;7.828;2023-05-10T12:05:54;0.75;;;0.73;;
7997;SDS011;4044;49.814;7.828;2023-05-10T12:08:27;2.72;;;1.10;;
7997;SDS011;4044;49.814;7.828;2023-05-10T12:10:54;1.48;;;1.10;;
7997;SDS011;4044;49.814;7.828;2023-05-10T12:13:30;0.85;;;0.85;;
7997;SDS011;4044;49.814;7.828;2023-05-10T12:15:58;1.77;;;0.95;;
7997;SDS011;4044;49.814;7.828;2023-05-10T12:18:25;1.25;;;1.15;;
7997;SDS011;4044;49.814;7.828;2023-05-10T12:20:54;0.98;;;0.90;;
7997;SDS011;4044;49.814;7.828;2023-05-10T12:23:27;1.75;;;1.10;;
7997;SDS011;4044;49.814;7.828;2023-05-10T12:25:53;1.30;;;1.05;;
7997;SDS011;4044;49.814;7.828;2023-05-10T12:28:18;1.10;;;1.10;;
7997;SDS011;4044;49.814;7.828;2023-05-10T12:30:44;1.50;;;1.20;;
7997;SDS011;4044;49.814;7.828;2023-05-10T12:33:11;1.05;;;1.05;;
7997;SDS011;4044;49.814;7.828;2023-05-10T12:35:49;1.10;;;1.05;;
7997;SDS011;4044;49.814;7.828;2023-05-10T12:38:28;2.67;;;1.20;;
7997;SDS011;4044;49.814;7.828;2023-05-10T12:41:02;2.88;;;1.08;;
7997;SDS011;4044;49.814;7.828;2023-05-10T12:43:29;1.00;;;1.00;;
7997;SDS011;4044;49.814;7.828;2023-05-10T12:45:55;1.00;;;1.00;;
7997;SDS011;4044;49.814;7.828;2023-05-10T12:48:20;2.38;;;1.35;;
7997;SDS011;4044;49.814;7.828;2023-05-10T12:50:46;1.13;;;1.10;;
7997;SDS011;4044;49.814;7.828;2023-05-10T12:53:15;1.85;;;1.15;;
7997;SDS011;4044;49.814;7.828;2023-05-10T12:55:41;1.58;;;1.10;;
7997;SDS011;4044;49.814;7.828;2023-05-10T12:58:07;2.47;;;1.08;;
7997;SDS011;4044;49.814;7.828;2023-05-10T13:00:33;1.20;;;1.20;;
7997;SDS011;4044;49.814;7.828;2023-05-10T13:02:58;1.92;;;1.10;;
7997;SDS011;4044;49.814;7.828;2023-05-10T13:05:24;2.38;;;1.50;;
7997;SDS011;4044;49.814;7.828;2023-05-10T13:07:50;0.95;;;0.95;;
7997;SDS011;4044;49.814;7.828;2023-05-10T13:10:15;1.83;;;1.33;;
7997;SDS011;4044;49.814;7.828;2023-05-10T13:12:41;1.52;;;0.90;;
7997;SDS011;4044;49.814;7.828;2023-05-10T13:15:06;3.78;;;1.15;;
7997;SDS011;4044;49.814;7.828;2023-05-10T13:17:32;1.63;;;1.08;;
7997;SDS011;4044;49.814;7.828;2023-05-10T13:19:58;2.38;;;1.13;;
7997;SDS011;4044;49.814;7.828;2023-05-10T13:22:23;3.78;;;1.15;;
7997;SDS011;4044;49.814;7.828;2023-05-10T13:24:49;1.13;;;1.10;;
7997;SDS011;4044;49.814;7.828;2023-05-10T13:27:14;2.97;;;1.30;;
7997;SDS011;4044;49.814;7.828;2023-05-10T13:29:40;3.03;;;1.30;;
7997;SDS011;4044;49.814;7.828;2023-05-10T13:32:05;1.52;;;1.02;;
7997;SDS011;4044;49.814;7.828;2023-05-10T13:34:31;2.55;;;1.10;;
7997;SDS011;4044;49.814;7.828;2023-05-10T13:36:57;2.33;;;1.40;;
7997;SDS011;4044;49.814;7.828;2023-05-10T13:39:22;1.05;;;1.05;;
7997;SDS011;4044;49.814;7.828;2023-05-10T13:41:48;1.35;;;1.25;;
7997;SDS011;4044;49.814;7.828;2023-05-10T13:44:14;1.50;;;1.40;;
7997;SDS011;4044;49.814;7.828;2023-05-10T13:46:40;5.03;;;1.40;;
7997;SDS011;4044;49.814;7.828;2023-05-10T13:49:07;1.45;;;1.10;;
7997;SDS011;4044;49.814;7.828;2023-05-10T13:51:33;2.58;;;1.20;;
7997;SDS011;4044;49.814;7.828;2023-05-10T13:53:59;1.20;;;1.10;;
7997;SDS011;4044;49.814;7.828;2023-05-10T13:56:25;1.35;;;1.20;;
7997;SDS011;4044;49.814;7.828;2023-05-10T13:58:50;3.00;;;1.33;;
7997;SDS011;4044;49.814;7.828;2023-05-10T14:01:16;1.50;;;1.15;;
7997;SDS011;4044;49.814;7.828;2023-05-10T14:03:41;1.15;;;1.05;;
7997;SDS011;4044;49.814;7.828;2023-05-10T14:06:07;1.90;;;1.20;;
7997;SDS011;4044;49.814;7.828;2023-05-10T14:08:33;2.03;;;1.33;;
7997;SDS011;4044;49.814;7.828;2023-05-10T14:11:00;2.25;;;1.10;;
7997;SDS011;4044;49.814;7.828;2023-05-10T14:13:25;6.85;;;3.22;;
7997;SDS011;4044;49.814;7.828;2023-05-10T14:15:52;18.25;;;8.77;;
7997;SDS011;4044;49.814;7.828;2023-05-10T14:18:18;2.42;;;1.30;;
7997;SDS011;4044;49.814;7.828;2023-05-10T14:20:44;2.28;;;1.10;;
7997;SDS011;4044;49.814;7.828;2023-05-10T14:23:09;1.75;;;1.00;;
7997;SDS011;4044;49.814;7.828;2023-05-10T14:25:35;3.25;;;1.30;;
7997;SDS011;4044;49.814;7.828;2023-05-10T14:28:01;3.53;;;1.13;;
7997;SDS011;4044;49.814;7.828;2023-05-10T14:30:26;1.20;;;1.00;;
7997;SDS011;4044;49.814;7.828;2023-05-10T14:32:52;2.03;;;1.05;;
7997;SDS011;4044;49.814;7.828;2023-05-10T14:35:19;2.28;;;1.15;;
7997;SDS011;4044;49.814;7.828;2023-05-10T14:37:44;2.50;;;1.70;;
7997;SDS011;4044;49.814;7.828;2023-05-10T14:40:10;8.43;;;3.53;;
7997;SDS011;4044;49.814;7.828;2023-05-10T14:42:36;6.78;;;4.72;;
7997;SDS011;4044;49.814;7.828;2023-05-10T14:45:02;13.55;;;12.10;;
7997;SDS011;4044;49.814;7.828;2023-05-10T14:47:28;12.50;;;11.20;;
7997;SDS011;4044;49.814;7.828;2023-05-10T14:49:54;16.63;;;13.32;;
7997;SDS011;4044;49.814;7.828;2023-05-10T14:52:19;15.05;;;13.60;;
7997;SDS011;4044;49.814;7.828;2023-05-10T14:54:45;13.80;;;12.23;;
7997;SDS011;4044;49.814;7.828;2023-05-10T14:57:11;14.32;;;12.82;;
7997;SDS011;4044;49.814;7.828;2023-05-10T14:59:36;9.35;;;8.43;;
7997;SDS011;4044;49.814;7.828;2023-05-10T15:02:02;6.65;;;5.47;;
7997;SDS011;4044;49.814;7.828;2023-05-10T15:04:29;5.60;;;5.10;;
7997;SDS011;4044;49.814;7.828;2023-05-10T15:06:55;4.13;;;3.70;;
7997;SDS011;4044;49.814;7.828;2023-05-10T15:09:24;4.15;;;3.78;;
7997;SDS011;4044;49.814;7.828;2023-05-10T15:11:49;2.97;;;2.78;;
7997;SDS011;4044;49.814;7.828;2023-05-10T15:14:15;2.90;;;2.70;;
7997;SDS011;4044;49.814;7.828;2023-05-10T15:16:40;2.67;;;2.47;;
7997;SDS011;4044;49.814;7.828;2023-05-10T15:19:06;2.17;;;2.00;;
7997;SDS011;4044;49.814;7.828;2023-05-10T15:21:31;1.80;;;1.67;;
7997;SDS011;4044;49.814;7.828;2023-05-10T15:24:03;2.35;;;1.70;;
7997;SDS011;4044;49.814;7.828;2023-05-10T15:26:30;1.50;;;1.40;;
7997;SDS011;4044;49.814;7.828;2023-05-10T15:28:55;1.40;;;1.30;;
7997;SDS011;4044;49.814;7.828;2023-05-10T15:31:21;3.00;;;1.17;;
7997;SDS011;4044;49.814;7.828;2023-05-10T15:33:47;1.38;;;1.27;;
7997;SDS011;4044;49.814;7.828;2023-05-10T15:36:12;2.13;;;1.20;;
7997;SDS011;4044;49.814;7.828;2023-05-10T15:38:38;0.77;;;0.77;;
7997;SDS011;4044;49.814;7.828;2023-05-10T15:41:03;0.88;;;0.80;;
7997;SDS011;4044;49.814;7.828;2023-05-10T15:43:29;0.80;;;0.80;;
7997;SDS011;4044;49.814;7.828;2023-05-10T15:45:55;0.82;;;0.80;;
7997;SDS011;4044;49.814;7.828;2023-05-10T15:48:20;1.60;;;1.15;;
7997;SDS011;4044;49.814;7.828;2023-05-10T15:50:45;0.95;;;0.82;;